sensor_id;sensor_type;location;lat;lon;timestamp;P1;durP1;ratioP1;P2;durP2;ratioP2
9834;SDS011;4956;50.996;13.716;2023-02-26T00:00:15;5.10;;;2.10;;
9834;SDS011;4956;50.996;13.716;2023-02-26T00:03:36;3.78;;;2.30;;
9834;SDS011;4956;50.996;13.716;2023-02-26T00:06:56;6.55;;;2.20;;
9834;SDS011;4956;50.996;13.716;2023-02-26T00:10:16;4.10;;;2.30;;
9834;SDS011;4956;50.996;13.716;2023-02-26T00:13:37;2.28;;;2.08;;
9834;SDS011;4956;50.996;13.716;2023-02-26T00:20:43;5.25;;;2.30;;
9834;SDS011;4956;50.996;13.716;2023-02-26T00:24:04;2.30;;;2.10;;
9834;SDS011;4956;50.996;13.716;2023-02-26T00:27:25;3.25;;;2.10;;
9834;SDS011;4956;50.996;13.716;2023-02-26T00:30:46;4.38;;;2.33;;
9834;SDS011;4956;50.996;13.716;2023-02-26T00:34:09;3.15;;;1.70;;
9834;SDS011;4956;50.996;13.716;2023-02-26T00:38:13;4.68;;;2.20;;
9834;SDS011;4956;50.996;13.716;2023-02-26T00:41:21;4.28;;;1.98;;
9834;SDS011;4956;50.996;13.716;2023-02-26T00:44:41;3.63;;;2.00;;
9834;SDS011;4956;50.996;13.716;2023-02-26T00:51:28;3.35;;;2.10;;
9834;SDS011;4956;50.996;13.716;2023-02-26T00:54:50;2.42;;;2.03;;
9834;SDS011;4956;50.996;13.716;2023-02-26T00:58:12;2.42;;;1.83;;
9834;SDS011;4956;50.996;13.716;2023-02-26T01:01:32;1.83;;;1.60;;
9834;SDS011;4956;50.996;13.716;2023-02-26T01:04:52;2.92;;;1.70;;
9834;SDS011;4956;50.996;13.716;2023-02-26T01:11:43;3.67;;;1.90;;
9834;SDS011;4956;50.996;13.716;2023-02-26T01:15:04;2.92;;;1.70;;
9834;SDS011;4956;50.996;13.716;2023-02-26T01:22:27;1.70;;;1.60;;
9834;SDS011;4956;50.996;13.716;2023-02-26T01:26:05;3.35;;;1.90;;
9834;SDS011;4956;50.996;13.716;2023-02-26T01:29:29;2.30;;;1.85;;
9834;SDS011;4956;50.996;13.716;2023-02-26T01:36:51;2.97;;;2.00;;
9834;SDS011;4956;50.996;13.716;2023-02-26T01:47:32;3.83;;;2.35;;
9834;SDS011;4956;50.996;13.716;2023-02-26T01:51:13;3.45;;;2.28;;
9834;SDS011;4956;50.996;13.716;2023-02-26T01:54:34;3.45;;;2.30;;
9834;SDS011;4956;50.996;13.716;2023-02-26T01:57:57;2.95;;;2.65;;
9834;SDS011;4956;50.996;13.716;2023-02-26T02:01:18;6.22;;;3.20;;
9834;SDS011;4956;50.996;13.716;2023-02-26T02:04:39;3.78;;;2.70;;
9834;SDS011;4956;50.996;13.716;2023-02-26T02:08:01;3.60;;;3.03;;
9834;SDS011;4956;50.996;13.716;2023-02-26T02:11:22;3.45;;;3.00;;
9834;SDS011;4956;50.996;13.716;2023-02-26T02:18:48;4.28;;;3.55;;
9834;SDS011;4956;50.996;13.716;2023-02-26T02:26:16;4.35;;;3.22;;
9834;SDS011;4956;50.996;13.716;2023-02-26T02:29:51;4.82;;;3.22;;
9834;SDS011;4956;50.996;13.716;2023-02-26T02:33:20;3.70;;;3.15;;
9834;SDS011;4956;50.996;13.716;2023-02-26T02:36:50;5.55;;;3.20;;
9834;SDS011;4956;50.996;13.716;2023-02-26T02:40:15;5.18;;;3.10;;
9834;SDS011;4956;50.996;13.716;2023-02-26T02:43:39;5.30;;;3.40;;
9834;SDS011;4956;50.996;13.716;2023-02-26T02:47:01;6.80;;;3.55;;
9834;SDS011;4956;50.996;13.716;2023-02-26T02:50:45;5.15;;;3.38;;
9834;SDS011;4956;50.996;13.716;2023-02-26T02:57:41;6.38;;;3.80;;
9834;SDS011;4956;50.996;13.716;2023-02-26T03:01:05;3.67;;;3.28;;
9834;SDS011;4956;50.996;13.716;2023-02-26T03:04:28;4.95;;;3.85;;
9834;SDS011;4956;50.996;13.716;2023-02-26T03:07:52;5.32;;;3.50;;
9834;SDS011;4956;50.996;13.716;2023-02-26T03:11:15;4.82;;;3.38;;
9834;SDS011;4956;50.996;13.716;2023-02-26T03:14:37;5.35;;;3.72;;
9834;SDS011;4956;50.996;13.716;2023-02-26T03:21:50;3.90;;;3.50;;
9834;SDS011;4956;50.996;13.716;2023-02-26T03:25:49;5.03;;;3.75;;
9834;SDS011;4956;50.996;13.716;2023-02-26T03:29:25;5.82;;;3.67;;
9834;SDS011;4956;50.996;13.716;2023-02-26T03:37:03;4.55;;;3.90;;
9834;SDS011;4956;50.996;13.716;2023-02-26T03:40:46;5.57;;;3.72;;
9834;SDS011;4956;50.996;13.716;2023-02-26T03:44:15;5.45;;;4.03;;
9834;SDS011;4956;50.996;13.716;2023-02-26T03:47:39;7.57;;;4.25;;
9834;SDS011;4956;50.996;13.716;2023-02-26T03:51:04;4.95;;;3.78;;
9834;SDS011;4956;50.996;13.716;2023-02-26T03:54:51;6.03;;;4.18;;
9834;SDS011;4956;50.996;13.716;2023-02-26T03:58:39;4.85;;;4.22;;
9834;SDS011;4956;50.996;13.716;2023-02-26T04:02:15;5.43;;;4.45;;
9834;SDS011;4956;50.996;13.716;2023-02-26T04:05:40;5.47;;;4.60;;
9834;SDS011;4956;50.996;13.716;2023-02-26T04:09:03;6.57;;;4.45;;
9834;SDS011;4956;50.996;13.716;2023-02-26T04:12:26;5.60;;;4.43;;
9834;SDS011;4956;50.996;13.716;2023-02-26T04:15:47;4.97;;;4.35;;
9834;SDS011;4956;50.996;13.716;2023-02-26T04:19:08;6.10;;;4.30;;
9834;SDS011;4956;50.996;13.716;2023-02-26T04:22:29;6.60;;;4.47;;
9834;SDS011;4956;50.996;13.716;2023-02-26T04:25:49;7.40;;;4.10;;
9834;SDS011;4956;50.996;13.716;2023-02-26T04:29:10;4.63;;;3.72;;
9834;SDS011;4956;50.996;13.716;2023-02-26T04:32:31;6.05;;;4.35;;
9834;SDS011;4956;50.996;13.716;2023-02-26T04:35:52;5.53;;;4.15;;
9834;SDS011;4956;50.996;13.716;2023-02-26T04:39:13;5.82;;;4.22;;
9834;SDS011;4956;50.996;13.716;2023-02-26T04:42:34;7.07;;;4.65;;
9834;SDS011;4956;50.996;13.716;2023-02-26T04:45:54;7.65;;;4.50;;
9834;SDS011;4956;50.996;13.716;2023-02-26T04:49:15;5.63;;;4.28;;
9834;SDS011;4956;50.996;13.716;2023-02-26T04:52:37;5.15;;;3.85;;
9834;SDS011;4956;50.996;13.716;2023-02-26T04:55:58;5.20;;;3.80;;
9834;SDS011;4956;50.996;13.716;2023-02-26T04:59:19;6.85;;;4.65;;
9834;SDS011;4956;50.996;13.716;2023-02-26T05:02:39;4.88;;;3.63;;
9834;SDS011;4956;50.996;13.716;2023-02-26T05:06:00;4.90;;;3.50;;
9834;SDS011;4956;50.996;13.716;2023-02-26T05:09:20;5.45;;;3.33;;
9834;SDS011;4956;50.996;13.716;2023-02-26T05:12:41;6.03;;;3.70;;
9834;SDS011;4956;50.996;13.716;2023-02-26T05:16:01;5.80;;;3.60;;
9834;SDS011;4956;50.996;13.716;2023-02-26T05:19:22;5.65;;;3.20;;
9834;SDS011;4956;50.996;13.716;2023-02-26T05:22:43;6.28;;;3.42;;
9834;SDS011;4956;50.996;13.716;2023-02-26T05:26:03;5.07;;;2.88;;
9834;SDS011;4956;50.996;13.716;2023-02-26T05:29:24;5.43;;;2.88;;
9834;SDS011;4956;50.996;13.716;2023-02-26T05:32:45;4.57;;;2.88;;
9834;SDS011;4956;50.996;13.716;2023-02-26T05:36:05;5.30;;;2.72;;
9834;SDS011;4956;50.996;13.716;2023-02-26T05:39:26;5.07;;;3.03;;
9834;SDS011;4956;50.996;13.716;2023-02-26T05:42:46;5.75;;;2.95;;
9834;SDS011;4956;50.996;13.716;2023-02-26T05:46:06;5.97;;;3.10;;
9834;SDS011;4956;50.996;13.716;2023-02-26T05:49:27;5.25;;;3.17;;
9834;SDS011;4956;50.996;13.716;2023-02-26T05:52:47;6.25;;;3.53;;
9834;SDS011;4956;50.996;13.716;2023-02-26T05:56:07;5.43;;;3.35;;
9834;SDS011;4956;50.996;13.716;2023-02-26T05:59:27;6.35;;;3.50;;
9834;SDS011;4956;50.996;13.716;2023-02-26T06:02:48;5.10;;;3.33;;
9834;SDS011;4956;50.996;13.716;2023-02-26T06:06:11;7.65;;;3.47;;
9834;SDS011;4956;50.996;13.716;2023-02-26T06:09:33;6.47;;;3.38;;
9834;SDS011;4956;50.996;13.716;2023-02-26T06:12:53;5.95;;;3.45;;
9834;SDS011;4956;50.996;13.716;2023-02-26T06:16:13;5.80;;;3.33;;
9834;SDS011;4956;50.996;13.716;2023-02-26T06:19:34;5.90;;;3.38;;
9834;SDS011;4956;50.996;13.716;2023-02-26T06:22:54;6.22;;;3.88;;
9834;SDS011;4956;50.996;13.716;2023-02-26T06:26:14;8.55;;;3.30;;
9834;SDS011;4956;50.996;13.716;2023-02-26T06:29:35;6.28;;;3.60;;
9834;SDS011;4956;50.996;13.716;2023-02-26T06:32:56;6.18;;;3.83;;
9834;SDS011;4956;50.996;13.716;2023-02-26T06:36:16;4.65;;;3.40;;
9834;SDS011;4956;50.996;13.716;2023-02-26T06:39:37;5.80;;;3.85;;
9834;SDS011;4956;50.996;13.716;2023-02-26T06:42:57;7.15;;;4.20;;
9834;SDS011;4956;50.996;13.716;2023-02-26T06:46:17;7.40;;;3.88;;
9834;SDS011;4956;50.996;13.716;2023-02-26T06:49:38;6.90;;;4.00;;
9834;SDS011;4956;50.996;13.716;2023-02-26T06:52:58;7.45;;;3.95;;
9834;SDS011;4956;50.996;13.716;2023-02-26T06:56:18;7.70;;;3.75;;
9834;SDS011;4956;50.996;13.716;2023-02-26T06:59:39;6.97;;;3.70;;
9834;SDS011;4956;50.996;13.716;2023-02-26T07:02:59;6.03;;;3.40;;
9834;SDS011;4956;50.996;13.716;2023-02-26T07:06:19;6.30;;;3.22;;
9834;SDS011;4956;50.996;13.716;2023-02-26T07:09:40;9.05;;;3.65;;
9834;SDS011;4956;50.996;13.716;2023-02-26T07:13:01;7.28;;;3.55;;
9834;SDS011;4956;50.996;13.716;2023-02-26T07:16:21;6.85;;;3.03;;
9834;SDS011;4956;50.996;13.716;2023-02-26T07:19:41;5.22;;;3.35;;
9834;SDS011;4956;50.996;13.716;2023-02-26T07:23:03;5.53;;;3.13;;
9834;SDS011;4956;50.996;13.716;2023-02-26T07:26:23;5.03;;;2.92;;
9834;SDS011;4956;50.996;13.716;2023-02-26T07:29:44;5.22;;;3.15;;
9834;SDS011;4956;50.996;13.716;2023-02-26T07:33:04;5.63;;;3.17;;
9834;SDS011;4956;50.996;13.716;2023-02-26T07:36:24;5.78;;;3.35;;
9834;SDS011;4956;50.996;13.716;2023-02-26T07:39:44;7.45;;;2.60;;
9834;SDS011;4956;50.996;13.716;2023-02-26T07:43:05;6.13;;;2.67;;
9834;SDS011;4956;50.996;13.716;2023-02-26T07:46:25;6.22;;;2.72;;
9834;SDS011;4956;50.996;13.716;2023-02-26T07:49:45;6.22;;;2.75;;
9834;SDS011;4956;50.996;13.716;2023-02-26T07:53:05;6.18;;;2.92;;
9834;SDS011;4956;50.996;13.716;2023-02-26T07:56:26;7.80;;;2.70;;
9834;SDS011;4956;50.996;13.716;2023-02-26T07:59:46;5.60;;;2.55;;
9834;SDS011;4956;50.996;13.716;2023-02-26T08:03:06;6.00;;;2.20;;
9834;SDS011;4956;50.996;13.716;2023-02-26T08:06:27;6.28;;;2.53;;
9834;SDS011;4956;50.996;13.716;2023-02-26T08:09:47;3.78;;;2.50;;
9834;SDS011;4956;50.996;13.716;2023-02-26T08:13:08;6.40;;;2.92;;
9834;SDS011;4956;50.996;13.716;2023-02-26T08:16:28;5.53;;;2.33;;
9834;SDS011;4956;50.996;13.716;2023-02-26T08:19:48;6.85;;;2.78;;
9834;SDS011;4956;50.996;13.716;2023-02-26T08:23:09;5.90;;;2.33;;
9834;SDS011;4956;50.996;13.716;2023-02-26T08:26:29;6.00;;;2.65;;
9834;SDS011;4956;50.996;13.716;2023-02-26T08:29:49;4.82;;;2.55;;
9834;SDS011;4956;50.996;13.716;2023-02-26T08:33:10;4.10;;;2.65;;
9834;SDS011;4956;50.996;13.716;2023-02-26T08:36:30;4.28;;;2.30;;
9834;SDS011;4956;50.996;13.716;2023-02-26T08:39:51;3.63;;;2.13;;
9834;SDS011;4956;50.996;13.716;2023-02-26T08:43:13;4.45;;;2.30;;
9834;SDS011;4956;50.996;13.716;2023-02-26T08:46:34;7.40;;;3.10;;
9834;SDS011;4956;50.996;13.716;2023-02-26T08:49:54;7.32;;;3.00;;
9834;SDS011;4956;50.996;13.716;2023-02-26T08:53:14;6.65;;;2.50;;
9834;SDS011;4956;50.996;13.716;2023-02-26T08:56:35;5.50;;;2.28;;
9834;SDS011;4956;50.996;13.716;2023-02-26T08:59:55;4.70;;;2.25;;
9834;SDS011;4956;50.996;13.716;2023-02-26T09:03:15;5.65;;;2.15;;
9834;SDS011;4956;50.996;13.716;2023-02-26T09:06:36;4.20;;;1.90;;
9834;SDS011;4956;50.996;13.716;2023-02-26T09:09:56;6.30;;;1.90;;
9834;SDS011;4956;50.996;13.716;2023-02-26T09:13:16;8.25;;;2.60;;
9834;SDS011;4956;50.996;13.716;2023-02-26T09:16:37;4.82;;;1.90;;
9834;SDS011;4956;50.996;13.716;2023-02-26T09:19:59;7.82;;;2.00;;
9834;SDS011;4956;50.996;13.716;2023-02-26T09:23:20;4.85;;;1.88;;
9834;SDS011;4956;50.996;13.716;2023-02-26T09:26:40;5.43;;;2.08;;
9834;SDS011;4956;50.996;13.716;2023-02-26T09:30:01;6.28;;;1.65;;
9834;SDS011;4956;50.996;13.716;2023-02-26T09:33:24;3.08;;;1.70;;
9834;SDS011;4956;50.996;13.716;2023-02-26T09:36:44;6.15;;;1.85;;
9834;SDS011;4956;50.996;13.716;2023-02-26T09:40:05;3.30;;;2.05;;
9834;SDS011;4956;50.996;13.716;2023-02-26T09:43:33;5.10;;;1.70;;
9834;SDS011;4956;50.996;13.716;2023-02-26T09:47:08;5.32;;;2.10;;
9834;SDS011;4956;50.996;13.716;2023-02-26T09:54:17;4.80;;;1.50;;
9834;SDS011;4956;50.996;13.716;2023-02-26T09:57:43;3.22;;;1.52;;
9834;SDS011;4956;50.996;13.716;2023-02-26T10:08:49;3.53;;;1.60;;
9834;SDS011;4956;50.996;13.716;2023-02-26T10:12:30;4.22;;;1.50;;
9834;SDS011;4956;50.996;13.716;2023-02-26T10:16:03;4.25;;;1.58;;
9834;SDS011;4956;50.996;13.716;2023-02-26T10:19:28;4.20;;;1.67;;
9834;SDS011;4956;50.996;13.716;2023-02-26T10:22:55;2.20;;;1.42;;
9834;SDS011;4956;50.996;13.716;2023-02-26T10:26:21;4.10;;;1.77;;
9834;SDS011;4956;50.996;13.716;2023-02-26T10:30:02;3.92;;;1.80;;
9834;SDS011;4956;50.996;13.716;2023-02-26T10:33:45;4.43;;;1.08;;
9834;SDS011;4956;50.996;13.716;2023-02-26T10:44:21;3.60;;;1.40;;
9834;SDS011;4956;50.996;13.716;2023-02-26T10:51:38;3.72;;;1.30;;
9834;SDS011;4956;50.996;13.716;2023-02-26T10:58:42;4.15;;;1.17;;
9834;SDS011;4956;50.996;13.716;2023-02-26T11:02:07;3.50;;;1.23;;
9834;SDS011;4956;50.996;13.716;2023-02-26T11:05:48;4.72;;;1.55;;
9834;SDS011;4956;50.996;13.716;2023-02-26T11:09:24;1.65;;;1.13;;
9834;SDS011;4956;50.996;13.716;2023-02-26T11:12:46;4.45;;;1.20;;
9834;SDS011;4956;50.996;13.716;2023-02-26T11:16:09;3.95;;;1.20;;
9834;SDS011;4956;50.996;13.716;2023-02-26T11:19:34;2.13;;;1.08;;
9834;SDS011;4956;50.996;13.716;2023-02-26T11:22:56;4.18;;;1.35;;
9834;SDS011;4956;50.996;13.716;2023-02-26T11:26:19;4.50;;;1.10;;
9834;SDS011;4956;50.996;13.716;2023-02-26T11:29:46;4.63;;;1.10;;
9834;SDS011;4956;50.996;13.716;2023-02-26T11:33:16;3.20;;;1.27;;
9834;SDS011;4956;50.996;13.716;2023-02-26T11:36:40;2.28;;;0.77;;
9834;SDS011;4956;50.996;13.716;2023-02-26T11:40:13;2.72;;;1.00;;
9834;SDS011;4956;50.996;13.716;2023-02-26T11:43:36;3.00;;;0.90;;
9834;SDS011;4956;50.996;13.716;2023-02-26T11:47:01;2.80;;;0.98;;
9834;SDS011;4956;50.996;13.716;2023-02-26T11:50:24;3.85;;;1.00;;
9834;SDS011;4956;50.996;13.716;2023-02-26T11:53:56;2.65;;;0.90;;
9834;SDS011;4956;50.996;13.716;2023-02-26T11:57:25;2.95;;;0.82;;
9834;SDS011;4956;50.996;13.716;2023-02-26T12:00:50;1.80;;;0.80;;
9834;SDS011;4956;50.996;13.716;2023-02-26T12:04:12;2.97;;;1.13;;
9834;SDS011;4956;50.996;13.716;2023-02-26T12:07:34;2.88;;;0.98;;
9834;SDS011;4956;50.996;13.716;2023-02-26T12:18:28;2.65;;;0.90;;
9834;SDS011;4956;50.996;13.716;2023-02-26T12:21:55;3.75;;;1.10;;
9834;SDS011;4956;50.996;13.716;2023-02-26T12:29:20;4.53;;;1.00;;
9834;SDS011;4956;50.996;13.716;2023-02-26T12:36:23;2.58;;;1.25;;
9834;SDS011;4956;50.996;13.716;2023-02-26T12:47:10;1.05;;;0.70;;
9834;SDS011;4956;50.996;13.716;2023-02-26T12:51:13;1.67;;;0.70;;
9834;SDS011;4956;50.996;13.716;2023-02-26T12:54:48;2.10;;;0.90;;
9834;SDS011;4956;50.996;13.716;2023-02-26T12:58:46;3.70;;;1.08;;
9834;SDS011;4956;50.996;13.716;2023-02-26T13:09:51;1.42;;;0.80;;
9834;SDS011;4956;50.996;13.716;2023-02-26T13:13:20;1.42;;;0.95;;
9834;SDS011;4956;50.996;13.716;2023-02-26T13:20:14;3.38;;;1.02;;
9834;SDS011;4956;50.996;13.716;2023-02-26T13:23:41;2.38;;;0.80;;
9834;SDS011;4956;50.996;13.716;2023-02-26T13:27:11;2.45;;;1.00;;
9834;SDS011;4956;50.996;13.716;2023-02-26T13:30:35;2.70;;;1.10;;
9834;SDS011;4956;50.996;13.716;2023-02-26T13:34:01;3.97;;;0.98;;
9834;SDS011;4956;50.996;13.716;2023-02-26T13:37:36;3.05;;;1.02;;
9834;SDS011;4956;50.996;13.716;2023-02-26T13:48:15;1.40;;;0.63;;
9834;SDS011;4956;50.996;13.716;2023-02-26T13:51:43;3.03;;;0.82;;
9834;SDS011;4956;50.996;13.716;2023-02-26T13:55:05;2.08;;;0.75;;
9834;SDS011;4956;50.996;13.716;2023-02-26T13:58:51;2.83;;;0.88;;
9834;SDS011;4956;50.996;13.716;2023-02-26T14:12:41;2.55;;;0.90;;
9834;SDS011;4956;50.996;13.716;2023-02-26T14:16:09;1.70;;;0.85;;
9834;SDS011;4956;50.996;13.716;2023-02-26T14:19:41;2.15;;;0.85;;
9834;SDS011;4956;50.996;13.716;2023-02-26T14:26:31;3.63;;;1.10;;
9834;SDS011;4956;50.996;13.716;2023-02-26T14:29:57;5.75;;;1.27;;
9834;SDS011;4956;50.996;13.716;2023-02-26T14:33:25;4.00;;;1.30;;
9834;SDS011;4956;50.996;13.716;2023-02-26T14:36:50;4.85;;;2.08;;
9834;SDS011;4956;50.996;13.716;2023-02-26T14:40:14;3.50;;;1.70;;
9834;SDS011;4956;50.996;13.716;2023-02-26T14:43:37;3.72;;;1.40;;
9834;SDS011;4956;50.996;13.716;2023-02-26T14:47:00;2.80;;;1.40;;
9834;SDS011;4956;50.996;13.716;2023-02-26T14:57:29;5.55;;;1.58;;
9834;SDS011;4956;50.996;13.716;2023-02-26T15:00:55;5.85;;;1.70;;
9834;SDS011;4956;50.996;13.716;2023-02-26T15:04:46;4.50;;;1.70;;
9834;SDS011;4956;50.996;13.716;2023-02-26T15:08:45;3.63;;;1.50;;
9834;SDS011;4956;50.996;13.716;2023-02-26T15:12:17;4.50;;;1.75;;
9834;SDS011;4956;50.996;13.716;2023-02-26T15:15:57;4.35;;;1.63;;
9834;SDS011;4956;50.996;13.716;2023-02-26T15:26:59;1.73;;;1.00;;
9834;SDS011;4956;50.996;13.716;2023-02-26T15:30:21;1.65;;;0.80;;
9834;SDS011;4956;50.996;13.716;2023-02-26T15:33:42;0.80;;;0.52;;
9834;SDS011;4956;50.996;13.716;2023-02-26T15:37:03;1.20;;;0.60;;
9834;SDS011;4956;50.996;13.716;2023-02-26T15:40:24;2.28;;;0.70;;
9834;SDS011;4956;50.996;13.716;2023-02-26T15:43:49;1.85;;;0.63;;
9834;SDS011;4956;50.996;13.716;2023-02-26T15:47:13;1.67;;;0.80;;
9834;SDS011;4956;50.996;13.716;2023-02-26T15:50:36;2.92;;;1.27;;
9834;SDS011;4956;50.996;13.716;2023-02-26T15:53:59;2.08;;;1.20;;
9834;SDS011;4956;50.996;13.716;2023-02-26T15:57:22;2.47;;;1.08;;
9834;SDS011;4956;50.996;13.716;2023-02-26T16:00:43;3.53;;;1.08;;
9834;SDS011;4956;50.996;13.716;2023-02-26T16:04:06;3.47;;;1.10;;
9834;SDS011;4956;50.996;13.716;2023-02-26T16:07:29;2.90;;;1.50;;
9834;SDS011;4956;50.996;13.716;2023-02-26T16:10:50;2.42;;;1.27;;
9834;SDS011;4956;50.996;13.716;2023-02-26T16:14:19;2.45;;;1.50;;
9834;SDS011;4956;50.996;13.716;2023-02-26T16:17:42;5.60;;;1.77;;
9834;SDS011;4956;50.996;13.716;2023-02-26T16:21:04;8.88;;;3.63;;
9834;SDS011;4956;50.996;13.716;2023-02-26T16:24:26;8.27;;;2.38;;
9834;SDS011;4956;50.996;13.716;2023-02-26T16:28:09;5.20;;;1.58;;
9834;SDS011;4956;50.996;13.716;2023-02-26T16:31:34;5.95;;;2.40;;
9834;SDS011;4956;50.996;13.716;2023-02-26T16:34:58;3.53;;;1.80;;
9834;SDS011;4956;50.996;13.716;2023-02-26T16:38:27;4.20;;;1.70;;
9834;SDS011;4956;50.996;13.716;2023-02-26T16:42:01;1.75;;;1.10;;
9834;SDS011;4956;50.996;13.716;2023-02-26T16:48:58;5.10;;;1.20;;
9834;SDS011;4956;50.996;13.716;2023-02-26T16:52:21;3.17;;;1.50;;
9834;SDS011;4956;50.996;13.716;2023-02-26T16:55:44;5.45;;;1.40;;
9834;SDS011;4956;50.996;13.716;2023-02-26T16:59:19;3.33;;;1.60;;
9834;SDS011;4956;50.996;13.716;2023-02-26T17:02:41;3.42;;;1.20;;
9834;SDS011;4956;50.996;13.716;2023-02-26T17:06:05;3.42;;;1.30;;
9834;SDS011;4956;50.996;13.716;2023-02-26T17:13:00;4.28;;;1.10;;
9834;SDS011;4956;50.996;13.716;2023-02-26T17:16:23;3.58;;;1.30;;
9834;SDS011;4956;50.996;13.716;2023-02-26T17:19:44;3.83;;;1.40;;
9834;SDS011;4956;50.996;13.716;2023-02-26T17:23:05;2.05;;;1.00;;
9834;SDS011;4956;50.996;13.716;2023-02-26T17:26:28;2.53;;;1.10;;
9834;SDS011;4956;50.996;13.716;2023-02-26T17:29:48;3.75;;;1.90;;
9834;SDS011;4956;50.996;13.716;2023-02-26T17:33:10;6.43;;;2.88;;
9834;SDS011;4956;50.996;13.716;2023-02-26T17:36:32;5.07;;;2.95;;
9834;SDS011;4956;50.996;13.716;2023-02-26T17:39:52;6.10;;;3.28;;
9834;SDS011;4956;50.996;13.716;2023-02-26T17:43:13;5.13;;;2.92;;
9834;SDS011;4956;50.996;13.716;2023-02-26T17:46:33;5.10;;;2.83;;
9834;SDS011;4956;50.996;13.716;2023-02-26T17:49:55;7.32;;;4.10;;
9834;SDS011;4956;50.996;13.716;2023-02-26T17:53:16;5.68;;;2.55;;
9834;SDS011;4956;50.996;13.716;2023-02-26T17:56:37;4.13;;;1.85;;
9834;SDS011;4956;50.996;13.716;2023-02-26T17:59:58;4.40;;;1.70;;
9834;SDS011;4956;50.996;13.716;2023-02-26T18:03:18;3.60;;;2.30;;
9834;SDS011;4956;50.996;13.716;2023-02-26T18:06:39;5.35;;;2.30;;
9834;SDS011;4956;50.996;13.716;2023-02-26T18:10:00;4.40;;;2.25;;
9834;SDS011;4956;50.996;13.716;2023-02-26T18:13:20;3.83;;;2.03;;
9834;SDS011;4956;50.996;13.716;2023-02-26T18:16:41;3.78;;;2.30;;
9834;SDS011;4956;50.996;13.716;2023-02-26T18:20:04;4.43;;;1.85;;
9834;SDS011;4956;50.996;13.716;2023-02-26T18:23:28;3.78;;;2.08;;
9834;SDS011;4956;50.996;13.716;2023-02-26T18:26:48;4.57;;;2.28;;
9834;SDS011;4956;50.996;13.716;2023-02-26T18:30:16;8.52;;;2.40;;
9834;SDS011;4956;50.996;13.716;2023-02-26T18:33:41;4.95;;;2.17;;
9834;SDS011;4956;50.996;13.716;2023-02-26T18:37:03;3.20;;;2.08;;
9834;SDS011;4956;50.996;13.716;2023-02-26T18:40:24;5.25;;;2.72;;
9834;SDS011;4956;50.996;13.716;2023-02-26T18:43:45;3.42;;;2.53;;
9834;SDS011;4956;50.996;13.716;2023-02-26T18:47:06;6.87;;;3.10;;
9834;SDS011;4956;50.996;13.716;2023-02-26T18:50:27;6.18;;;2.88;;
9834;SDS011;4956;50.996;13.716;2023-02-26T18:53:47;5.63;;;3.05;;
9834;SDS011;4956;50.996;13.716;2023-02-26T18:57:08;5.13;;;2.88;;
9834;SDS011;4956;50.996;13.716;2023-02-26T19:00:28;4.88;;;3.25;;
9834;SDS011;4956;50.996;13.716;2023-02-26T19:03:49;6.88;;;3.67;;
9834;SDS011;4956;50.996;13.716;2023-02-26T19:07:09;5.03;;;2.95;;
9834;SDS011;4956;50.996;13.716;2023-02-26T19:10:30;8.45;;;3.65;;
9834;SDS011;4956;50.996;13.716;2023-02-26T19:13:53;5.95;;;3.45;;
9834;SDS011;4956;50.996;13.716;2023-02-26T19:17:13;6.93;;;3.42;;
9834;SDS011;4956;50.996;13.716;2023-02-26T19:20:34;6.93;;;3.72;;
9834;SDS011;4956;50.996;13.716;2023-02-26T19:23:54;7.60;;;3.05;;
9834;SDS011;4956;50.996;13.716;2023-02-26T19:27:15;7.00;;;2.88;;
9834;SDS011;4956;50.996;13.716;2023-02-26T19:30:35;4.50;;;2.55;;
9834;SDS011;4956;50.996;13.716;2023-02-26T19:33:57;4.38;;;2.47;;
9834;SDS011;4956;50.996;13.716;2023-02-26T19:37:17;4.70;;;2.10;;
9834;SDS011;4956;50.996;13.716;2023-02-26T19:40:38;4.85;;;2.08;;
9834;SDS011;4956;50.996;13.716;2023-02-26T19:43:58;6.53;;;2.80;;
9834;SDS011;4956;50.996;13.716;2023-02-26T19:47:18;3.17;;;2.20;;
9834;SDS011;4956;50.996;13.716;2023-02-26T19:50:39;5.47;;;2.85;;
9834;SDS011;4956;50.996;13.716;2023-02-26T19:53:59;4.10;;;2.70;;
9834;SDS011;4956;50.996;13.716;2023-02-26T19:57:22;5.43;;;3.00;;
9834;SDS011;4956;50.996;13.716;2023-02-26T20:00:43;6.53;;;2.65;;
9834;SDS011;4956;50.996;13.716;2023-02-26T20:04:04;5.15;;;2.75;;
9834;SDS011;4956;50.996;13.716;2023-02-26T20:07:24;5.85;;;2.60;;
9834;SDS011;4956;50.996;13.716;2023-02-26T20:10:45;5.63;;;2.95;;
9834;SDS011;4956;50.996;13.716;2023-02-26T20:14:05;4.63;;;2.20;;
9834;SDS011;4956;50.996;13.716;2023-02-26T20:17:25;4.72;;;2.17;;
9834;SDS011;4956;50.996;13.716;2023-02-26T20:20:46;3.87;;;2.10;;
9834;SDS011;4956;50.996;13.716;2023-02-26T20:24:06;4.82;;;2.00;;
9834;SDS011;4956;50.996;13.716;2023-02-26T20:27:27;2.95;;;1.90;;
9834;SDS011;4956;50.996;13.716;2023-02-26T20:30:47;3.30;;;1.85;;
9834;SDS011;4956;50.996;13.716;2023-02-26T20:34:07;4.32;;;2.05;;
9834;SDS011;4956;50.996;13.716;2023-02-26T20:37:27;4.88;;;2.13;;
9834;SDS011;4956;50.996;13.716;2023-02-26T20:40:48;5.07;;;1.92;;
9834;SDS011;4956;50.996;13.716;2023-02-26T20:44:08;2.90;;;1.80;;
9834;SDS011;4956;50.996;13.716;2023-02-26T20:47:28;4.88;;;2.20;;
9834;SDS011;4956;50.996;13.716;2023-02-26T20:50:49;4.80;;;2.00;;
9834;SDS011;4956;50.996;13.716;2023-02-26T20:54:12;4.10;;;1.90;;
9834;SDS011;4956;50.996;13.716;2023-02-26T20:57:33;5.55;;;1.85;;
9834;SDS011;4956;50.996;13.716;2023-02-26T21:00:54;3.80;;;1.95;;
9834;SDS011;4956;50.996;13.716;2023-02-26T21:04:18;4.93;;;1.90;;
9834;SDS011;4956;50.996;13.716;2023-02-26T21:07:39;5.47;;;2.00;;
9834;SDS011;4956;50.996;13.716;2023-02-26T21:10:59;4.03;;;1.85;;
9834;SDS011;4956;50.996;13.716;2023-02-26T21:14:20;4.97;;;2.08;;
9834;SDS011;4956;50.996;13.716;2023-02-26T21:17:41;4.30;;;2.17;;
9834;SDS011;4956;50.996;13.716;2023-02-26T21:21:02;2.65;;;1.60;;
9834;SDS011;4956;50.996;13.716;2023-02-26T21:24:23;5.20;;;2.10;;
9834;SDS011;4956;50.996;13.716;2023-02-26T21:27:44;4.45;;;1.60;;
9834;SDS011;4956;50.996;13.716;2023-02-26T21:31:06;5.07;;;1.67;;
9834;SDS011;4956;50.996;13.716;2023-02-26T21:34:27;5.32;;;1.70;;
9834;SDS011;4956;50.996;13.716;2023-02-26T21:37:52;3.92;;;1.70;;
9834;SDS011;4956;50.996;13.716;2023-02-26T21:41:12;2.78;;;1.58;;
9834;SDS011;4956;50.996;13.716;2023-02-26T21:44:33;2.45;;;1.40;;
9834;SDS011;4956;50.996;13.716;2023-02-26T21:47:54;2.80;;;1.48;;
9834;SDS011;4956;50.996;13.716;2023-02-26T21:51:14;3.92;;;1.67;;
9834;SDS011;4956;50.996;13.716;2023-02-26T21:54:34;5.05;;;1.70;;
9834;SDS011;4956;50.996;13.716;2023-02-26T21:57:55;4.53;;;1.85;;
9834;SDS011;4956;50.996;13.716;2023-02-26T22:01:15;2.58;;;1.20;;
9834;SDS011;4956;50.996;13.716;2023-02-26T22:04:36;2.38;;;1.55;;
9834;SDS011;4956;50.996;13.716;2023-02-26T22:07:57;3.13;;;1.30;;
9834;SDS011;4956;50.996;13.716;2023-02-26T22:11:17;2.42;;;1.23;;
9834;SDS011;4956;50.996;13.716;2023-02-26T22:14:37;2.47;;;1.20;;
9834;SDS011;4956;50.996;13.716;2023-02-26T22:17:58;2.28;;;1.48;;
9834;SDS011;4956;50.996;13.716;2023-02-26T22:21:18;2.15;;;1.30;;
9834;SDS011;4956;50.996;13.716;2023-02-26T22:24:38;3.80;;;1.30;;
9834;SDS011;4956;50.996;13.716;2023-02-26T22:28:00;2.15;;;1.33;;
9834;SDS011;4956;50.996;13.716;2023-02-26T22:31:20;3.72;;;1.60;;
9834;SDS011;4956;50.996;13.716;2023-02-26T22:34:40;2.58;;;1.30;;
9834;SDS011;4956;50.996;13.716;2023-02-26T22:38:01;3.40;;;1.48;;
9834;SDS011;4956;50.996;13.716;2023-02-26T22:41:21;2.70;;;1.25;;
9834;SDS011;4956;50.996;13.716;2023-02-26T22:44:42;3.28;;;1.38;;
9834;SDS011;4956;50.996;13.716;2023-02-26T22:48:02;2.53;;;1.50;;
9834;SDS011;4956;50.996;13.716;2023-02-26T22:51:23;2.97;;;1.30;;
9834;SDS011;4956;50.996;13.716;2023-02-26T22:54:43;2.83;;;1.30;;
9834;SDS011;4956;50.996;13.716;2023-02-26T22:58:05;2.88;;;1.17;;
9834;SDS011;4956;50.996;13.716;2023-02-26T23:01:25;2.90;;;1.40;;
9834;SDS011;4956;50.996;13.716;2023-02-26T23:04:48;2.83;;;1.40;;
9834;SDS011;4956;50.996;13.716;2023-02-26T23:08:09;2.53;;;1.40;;
9834;SDS011;4956;50.996;13.716;2023-02-26T23:11:29;4.65;;;1.90;;